createdAt,value
2018-06-01T00:03:02.198Z,93.70
2018-06-01T00:06:05.303Z,93.70
2018-06-01T00:09:08.387Z,93.80
2018-06-01T00:12:11.493Z,93.90
2018-06-01T00:15:14.571Z,94.10
2018-06-01T00:18:17.667Z,94.10
2018-06-01T00:21:20.745Z,94.10
2018-06-01T00:24:23.992Z,94.10
2018-06-01T00:27:27.057Z,94.20
2018-06-01T00:30:30.945Z,94.20
2018-06-01T00:33:34.048Z,94.20
2018-06-01T00:36:37.123Z,94.30
2018-06-01T00:39:40.220Z,94.40
2018-06-01T00:42:43.325Z,94.30
2018-06-01T00:45:46.399Z,94.30
2018-06-01T00:48:49.503Z,94.40
2018-06-01T00:51:52.574Z,94.50
2018-06-01T00:55:07.679Z,94.70
2018-06-01T00:58:10.723Z,94.90
2018-06-01T01:01:13.829Z,95.10
2018-06-01T01:04:16.939Z,95.20
2018-06-01T01:07:20.854Z,95.30
2018-06-01T01:10:24.702Z,95.40
2018-06-01T01:13:27.778Z,95.40
2018-06-01T01:16:30.883Z,95.50
2018-06-01T01:19:33.961Z,95.70
2018-06-01T01:22:37.064Z,96.10
2018-06-01T01:25:40.165Z,96.40
2018-06-01T01:28:43.238Z,96.70
2018-06-01T01:31:46.343Z,97.00
2018-06-01T01:34:50.052Z,97.30
2018-06-01T01:37:53.159Z,97.50
2018-06-01T01:41:00.207Z,98.00
2018-06-01T01:44:03.289Z,99.00
2018-06-01T01:47:06.394Z,99.60
2018-06-01T01:50:09.473Z,99.90
2018-06-01T01:53:12.570Z,99.90
2018-06-01T01:56:15.652Z,99.90
2018-06-01T01:59:18.744Z,99.90
2018-06-01T02:02:21.828Z,99.90
2018-06-01T02:05:24.926Z,99.90
2018-06-01T02:08:28.011Z,99.90
2018-06-01T02:11:31.108Z,99.90
2018-06-01T02:14:34.212Z,99.90
2018-06-01T02:17:37.274Z,99.90
2018-06-01T02:20:41.513Z,99.90
2018-06-01T02:23:44.616Z,99.90
2018-06-01T02:26:47.726Z,99.90
2018-06-01T02:29:51.566Z,99.90
2018-06-01T02:33:12.708Z,99.90
2018-06-01T02:36:15.779Z,99.90
2018-06-01T02:39:18.886Z,99.90
2018-06-01T02:42:21.960Z,99.90
2018-06-01T02:45:25.054Z,99.90
2018-06-01T02:48:28.136Z,99.90
2018-06-01T02:51:31.223Z,99.90
2018-06-01T02:54:34.311Z,99.90
2018-06-01T02:57:37.401Z,99.90
2018-06-01T03:00:40.479Z,99.90
2018-06-01T03:03:43.703Z,99.90
2018-06-01T03:06:58.802Z,99.90
2018-06-01T03:10:01.930Z,99.90
2018-06-01T03:13:05.005Z,99.90
2018-06-01T03:16:08.867Z,99.90
2018-06-01T03:19:11.979Z,99.90
2018-06-01T03:22:15.073Z,99.90
2018-06-01T03:25:18.164Z,99.90
2018-06-01T03:28:21.262Z,99.90
2018-06-01T03:31:25.099Z,99.90
2018-06-01T03:34:28.213Z,99.90
2018-06-01T03:37:31.298Z,99.90
2018-06-01T03:40:34.404Z,99.90
2018-06-01T03:43:37.493Z,99.90
2018-06-01T03:46:40.593Z,99.90
2018-06-01T03:49:43.668Z,99.90
2018-06-01T03:52:46.763Z,99.90
2018-06-01T03:55:49.844Z,99.90
2018-06-01T03:58:52.935Z,99.90
2018-06-01T04:01:56.016Z,99.90
2018-06-01T04:04:59.123Z,99.70
2018-06-01T04:08:02.204Z,99.60
2018-06-01T04:11:06.068Z,98.50
2018-06-01T04:14:09.911Z,98.70
2018-06-01T04:17:13.034Z,98.70
2018-06-01T04:20:16.184Z,98.30
2018-06-01T04:23:20.038Z,97.90
2018-06-01T04:26:23.124Z,97.90
2018-06-01T04:29:26.241Z,97.60
2018-06-01T04:32:30.092Z,97.90
2018-06-01T04:35:33.205Z,97.90
2018-06-01T04:38:36.280Z,97.50
2018-06-01T04:41:39.382Z,97.00
2018-06-01T04:44:42.458Z,96.60
2018-06-01T04:47:45.591Z,97.30
2018-06-01T04:50:49.434Z,96.90
2018-06-01T04:53:52.596Z,96.90
2018-06-01T04:56:55.659Z,96.80
2018-06-01T04:59:58.760Z,96.60
2018-06-01T05:03:02.612Z,95.60
2018-06-01T05:06:05.721Z,95.60
2018-06-01T05:09:08.802Z,96.30
2018-06-01T05:12:11.925Z,95.50
2018-06-01T05:15:15.005Z,94.60
2018-06-01T05:18:18.107Z,94.70
2018-06-01T05:21:21.189Z,94.60
2018-06-01T05:24:24.296Z,94.40
2018-06-01T05:27:27.375Z,93.40
2018-06-01T05:30:30.468Z,94.10
2018-06-01T05:33:33.552Z,93.90
2018-06-01T05:36:36.647Z,94.90
2018-06-01T05:39:39.750Z,95.20
2018-06-01T05:42:42.918Z,94.40
2018-06-01T05:45:46.022Z,94.10
2018-06-01T05:48:49.116Z,93.80
2018-06-01T05:51:52.221Z,93.10
2018-06-01T05:54:56.094Z,92.60
2018-06-01T05:57:59.173Z,92.50
2018-06-01T06:01:02.282Z,92.80
2018-06-01T06:04:05.370Z,93.20
2018-06-01T06:07:08.463Z,92.40
2018-06-01T06:10:11.537Z,92.10
2018-06-01T06:13:14.709Z,93.30
2018-06-01T06:16:17.732Z,93.40
2018-06-01T06:19:20.842Z,93.10
2018-06-01T06:22:24.674Z,93.40
2018-06-01T06:25:27.785Z,93.40
2018-06-01T06:28:30.888Z,92.80
2018-06-01T06:31:34.053Z,92.80
2018-06-01T06:34:37.067Z,93.20
2018-06-01T06:37:40.233Z,93.10
2018-06-01T06:40:43.305Z,92.80
2018-06-01T06:43:46.400Z,92.40
2018-06-01T06:46:49.480Z,92.00
2018-06-01T06:49:52.625Z,91.70
2018-06-01T06:52:55.749Z,92.00
2018-06-01T06:55:58.828Z,91.10
2018-06-01T06:59:02.696Z,91.20
2018-06-01T07:02:05.877Z,91.10
2018-06-01T07:05:08.980Z,91.00
2018-06-01T07:08:12.068Z,90.00
2018-06-01T07:11:15.420Z,89.50
2018-06-01T07:14:19.246Z,87.80
2018-06-01T07:17:22.337Z,87.70
2018-06-01T07:20:25.431Z,85.50
2018-06-01T07:23:28.545Z,83.80
2018-06-01T07:26:31.624Z,84.80
2018-06-01T07:29:35.451Z,83.30
2018-06-01T07:32:38.560Z,82.60
2018-06-01T07:35:42.452Z,86.90
2018-06-01T07:38:45.655Z,86.20
2018-06-01T07:41:49.441Z,85.00
2018-06-01T07:44:52.538Z,84.90
2018-06-01T07:47:55.629Z,84.20
2018-06-01T07:50:58.812Z,84.10
2018-06-01T07:54:01.920Z,84.30
2018-06-01T07:57:05.135Z,83.10
2018-06-01T08:00:08.198Z,82.90
2018-06-01T08:03:11.303Z,81.70
2018-06-01T08:06:15.176Z,80.20
2018-06-01T08:09:19.017Z,81.20
2018-06-01T08:12:22.883Z,82.50
2018-06-01T08:15:25.979Z,82.40
2018-06-01T08:18:29.099Z,82.80
2018-06-01T08:21:33.019Z,83.70
2018-06-01T08:24:36.869Z,83.60
2018-06-01T08:27:39.970Z,83.50
2018-06-01T08:30:43.082Z,85.60
2018-06-01T08:33:46.198Z,87.20
2018-06-01T08:36:50.035Z,85.10
2018-06-01T08:39:53.146Z,85.10
2018-06-01T08:42:56.213Z,85.40
2018-06-01T08:45:59.313Z,83.50
2018-06-01T08:49:02.418Z,82.40
2018-06-01T08:52:05.545Z,81.60
2018-06-01T08:55:09.412Z,82.60
2018-06-01T08:58:12.491Z,82.30
2018-06-01T09:01:15.589Z,84.10
2018-06-01T09:04:18.688Z,83.20
2018-06-01T09:07:21.787Z,82.60
2018-06-01T09:10:24.888Z,80.60
2018-06-01T09:13:28.738Z,79.00
2018-06-01T09:16:31.837Z,79.00
2018-06-01T09:19:34.988Z,79.80
2018-06-01T09:22:38.063Z,80.10
2018-06-01T09:25:41.230Z,80.70
2018-06-01T09:28:44.340Z,80.00
2018-06-01T09:31:47.429Z,83.60
2018-06-01T09:34:50.549Z,85.30
2018-06-01T09:37:54.415Z,86.60
2018-06-01T09:40:57.501Z,86.50
2018-06-01T09:44:00.676Z,87.20
2018-06-01T09:47:03.939Z,88.70
2018-06-01T09:50:07.053Z,89.70
2018-06-01T09:53:10.144Z,89.50
2018-06-01T09:56:13.269Z,85.30
2018-06-01T09:59:16.371Z,84.60
2018-06-01T10:02:19.476Z,82.80
2018-06-01T10:05:23.352Z,83.60
2018-06-01T10:08:26.462Z,83.50
2018-06-01T10:11:29.612Z,80.50
2018-06-01T10:14:32.701Z,79.10
2018-06-01T10:17:35.811Z,77.20
2018-06-01T10:20:39.779Z,77.10
2018-06-01T10:23:42.868Z,77.10
2018-06-01T10:26:45.969Z,75.60
2018-06-01T10:29:49.888Z,74.90
2018-06-01T10:32:53.026Z,74.60
2018-06-01T10:35:56.088Z,74.50
2018-06-01T10:39:00.697Z,73.20
2018-06-01T10:42:04.124Z,73.10
2018-06-01T10:45:07.204Z,71.20
2018-06-01T10:48:10.320Z,70.90
2018-06-01T10:51:14.237Z,71.80
2018-06-01T10:54:17.309Z,71.80
2018-06-01T10:57:20.516Z,73.10
2018-06-01T11:00:23.765Z,72.70
2018-06-01T11:03:26.868Z,72.80
2018-06-01T11:06:29.991Z,72.70
2018-06-01T11:09:33.099Z,73.20
2018-06-01T11:12:36.223Z,73.30
2018-06-01T11:15:39.977Z,73.90
2018-06-01T11:18:43.020Z,73.50
2018-06-01T11:21:46.123Z,74.60
2018-06-01T11:24:49.216Z,76.70
2018-06-01T11:27:52.320Z,77.40
2018-06-01T11:30:56.182Z,79.30
2018-06-01T11:33:59.279Z,79.30
2018-06-01T11:37:02.376Z,78.90
2018-06-01T11:40:05.680Z,78.20
2018-06-01T11:43:08.766Z,79.20
2018-06-01T11:46:11.920Z,80.60
2018-06-01T11:49:14.965Z,80.30
2018-06-01T11:52:18.070Z,79.90
2018-06-01T11:55:21.947Z,78.40
2018-06-01T11:58:25.028Z,78.40
2018-06-01T12:01:28.167Z,77.20
2018-06-01T12:04:31.257Z,77.90
2018-06-01T12:07:34.327Z,77.20
2018-06-01T12:10:38.189Z,76.50
2018-06-01T12:13:41.263Z,76.50
2018-06-01T12:16:44.351Z,74.80
2018-06-01T12:19:47.428Z,74.40
2018-06-01T12:22:50.523Z,74.90
2018-06-01T12:25:53.625Z,73.80
2018-06-01T12:28:56.735Z,72.50
2018-06-01T12:31:59.786Z,73.30
2018-06-01T12:35:02.893Z,73.10
2018-06-01T12:38:05.960Z,71.70
2018-06-01T12:41:09.140Z,70.70
2018-06-01T12:44:13.048Z,67.10
2018-06-01T12:47:16.124Z,67.20
2018-06-01T12:50:19.973Z,66.90
2018-06-01T12:53:23.074Z,67.40
2018-06-01T12:56:26.171Z,67.30
2018-06-01T12:59:29.281Z,68.20
2018-06-01T13:02:32.352Z,67.50
2018-06-01T13:05:35.452Z,65.10
2018-06-01T13:08:38.546Z,67.20
2018-06-01T13:11:41.619Z,65.80
2018-06-01T13:14:44.718Z,65.80
2018-06-01T13:17:47.850Z,64.90
2018-06-01T13:20:50.942Z,65.00
2018-06-01T13:23:54.028Z,65.40
2018-06-01T13:26:57.893Z,66.40
2018-06-01T13:30:00.987Z,66.30
2018-06-01T13:33:04.120Z,65.90
2018-06-01T13:36:07.196Z,66.20
2018-06-01T13:39:11.069Z,66.30
2018-06-01T13:42:14.138Z,66.30
2018-06-01T13:45:17.292Z,65.30
2018-06-01T13:48:20.343Z,65.00
2018-06-01T13:51:23.469Z,67.00
2018-06-01T13:54:26.656Z,65.00
2018-06-01T13:57:30.571Z,64.20
2018-06-01T14:00:33.770Z,64.20
2018-06-01T14:03:37.586Z,65.40
2018-06-01T14:06:40.699Z,65.30
2018-06-01T14:09:43.792Z,64.90
2018-06-01T14:12:46.888Z,66.40
2018-06-01T14:15:49.992Z,65.60
2018-06-01T14:18:53.073Z,64.50
2018-06-01T14:21:57.030Z,63.90
2018-06-01T14:25:00.080Z,63.60
2018-06-01T14:28:03.203Z,66.00
2018-06-01T14:31:06.262Z,65.80
2018-06-01T14:34:09.346Z,70.40
2018-06-01T14:37:12.629Z,71.00
2018-06-01T14:40:15.756Z,72.00
2018-06-01T14:43:18.802Z,72.20
2018-06-01T14:46:21.905Z,72.90
2018-06-01T14:49:24.994Z,73.10
2018-06-01T14:52:28.123Z,72.90
2018-06-01T14:55:31.195Z,73.60
2018-06-01T14:58:34.276Z,74.50
2018-06-01T15:01:37.365Z,75.70
2018-06-01T15:04:40.626Z,76.60
2018-06-01T15:07:43.720Z,77.40
2018-06-01T15:10:46.867Z,78.00
2018-06-01T15:13:49.996Z,78.60
2018-06-01T15:16:53.782Z,92.50
2018-06-01T15:19:56.952Z,92.70
2018-06-01T15:23:00.041Z,97.90
2018-06-01T15:26:03.110Z,99.90
2018-06-01T15:29:06.956Z,99.90
2018-06-01T15:32:10.056Z,99.90
2018-06-01T15:35:13.216Z,99.90
2018-06-01T15:38:16.284Z,99.90
2018-06-01T15:41:19.423Z,99.90
2018-06-01T15:44:23.133Z,99.90
2018-06-01T15:47:26.272Z,99.90
2018-06-01T15:50:29.387Z,99.90
2018-06-01T15:53:32.638Z,99.90
2018-06-01T15:56:35.756Z,99.90
2018-06-01T15:59:39.595Z,99.90
2018-06-01T16:02:42.766Z,99.90
2018-06-01T16:05:45.851Z,99.90
2018-06-01T16:08:48.940Z,99.90
2018-06-01T16:11:52.803Z,99.90
2018-06-01T16:14:55.939Z,99.90
2018-06-01T16:17:58.982Z,99.90
2018-06-01T16:21:02.118Z,99.90
2018-06-01T16:24:05.209Z,99.90
2018-06-01T16:27:09.071Z,99.90
2018-06-01T16:30:12.184Z,99.90
2018-06-01T16:33:15.294Z,99.90
2018-06-01T16:36:18.371Z,99.90
2018-06-01T16:39:22.221Z,99.90
2018-06-01T16:42:25.315Z,99.90
2018-06-01T16:45:28.429Z,99.90
2018-06-01T16:48:31.498Z,99.90
2018-06-01T16:51:34.608Z,99.90
2018-06-01T16:54:37.693Z,99.90
2018-06-01T16:57:40.782Z,99.90
2018-06-01T17:00:43.860Z,99.90
2018-06-01T17:03:46.990Z,99.90
2018-06-01T17:06:50.073Z,99.90
2018-06-01T17:09:53.188Z,99.90
2018-06-01T17:12:57.028Z,99.90
2018-06-01T17:16:00.122Z,99.90
2018-06-01T17:19:03.191Z,99.90
2018-06-01T17:22:06.297Z,99.90
2018-06-01T17:25:09.382Z,99.90
2018-06-01T17:28:12.511Z,99.90
2018-06-01T17:31:15.626Z,99.90
2018-06-01T17:34:19.543Z,99.90
2018-06-01T17:37:22.618Z,99.90
2018-06-01T17:40:26.454Z,99.90
2018-06-01T17:43:29.588Z,99.90
2018-06-01T17:46:32.668Z,99.90
2018-06-01T17:49:35.756Z,99.90
2018-06-01T17:52:38.896Z,99.90
2018-06-01T17:55:42.732Z,99.90
2018-06-01T17:58:45.840Z,99.90
2018-06-01T18:01:48.909Z,99.90
2018-06-01T18:04:52.015Z,99.90
2018-06-01T18:07:55.111Z,99.90
2018-06-01T18:10:58.265Z,99.90
2018-06-01T18:14:01.330Z,99.90
2018-06-01T18:17:05.194Z,99.90
2018-06-01T18:20:08.292Z,99.90
2018-06-01T18:23:11.376Z,99.90
2018-06-01T18:26:14.483Z,99.90
2018-06-01T18:29:17.558Z,99.90
2018-06-01T18:32:20.656Z,99.90
2018-06-01T18:35:23.735Z,99.90
2018-06-01T18:38:26.950Z,99.90
2018-06-01T18:41:30.035Z,99.90
2018-06-01T18:44:33.156Z,99.90
2018-06-01T18:47:37.010Z,99.90
2018-06-01T18:50:40.108Z,99.90
2018-06-01T18:53:43.183Z,99.90
2018-06-01T18:56:46.292Z,99.90
2018-06-01T18:59:49.378Z,99.90
2018-06-01T19:02:52.488Z,99.90
2018-06-01T19:05:55.578Z,99.90
2018-06-01T19:08:58.649Z,99.90
2018-06-01T19:12:01.758Z,99.90
2018-06-01T19:15:04.849Z,99.90
2018-06-01T19:18:07.948Z,99.90
2018-06-01T19:21:11.070Z,99.90
2018-06-01T19:24:14.922Z,99.90
2018-06-01T19:27:18.896Z,99.90
2018-06-01T19:30:22.004Z,99.90
2018-06-01T19:33:25.108Z,99.90
2018-06-01T19:36:28.182Z,99.90
2018-06-01T19:39:31.293Z,99.90
2018-06-01T19:42:35.157Z,99.90
2018-06-01T19:45:38.268Z,99.90
2018-06-01T19:48:41.417Z,99.90
2018-06-01T19:51:44.499Z,99.90
2018-06-01T19:54:48.359Z,99.90
2018-06-01T19:57:51.477Z,99.90
2018-06-01T20:00:54.554Z,99.90
2018-06-01T20:03:57.646Z,99.90
2018-06-01T20:07:00.891Z,99.90
2018-06-01T20:10:03.968Z,99.90
2018-06-01T20:13:07.849Z,99.90
2018-06-01T20:16:10.901Z,99.90
2018-06-01T20:19:14.006Z,99.90
2018-06-01T20:22:17.146Z,99.90
2018-06-01T20:25:20.195Z,99.90
2018-06-01T20:28:23.285Z,99.90
2018-06-01T20:31:26.382Z,99.90
2018-06-01T20:34:29.467Z,99.90
2018-06-01T20:37:32.561Z,99.90
2018-06-01T20:40:35.782Z,99.90
2018-06-01T20:43:38.855Z,99.90
2018-06-01T20:46:43.779Z,99.90
2018-06-01T20:49:46.896Z,99.90
2018-06-01T20:52:50.738Z,99.90
2018-06-01T20:55:53.817Z,99.90
2018-06-01T20:58:57.002Z,99.90
2018-06-01T21:02:00.102Z,99.90
2018-06-01T21:05:03.370Z,99.90
2018-06-01T21:08:07.219Z,99.90
2018-06-01T21:11:10.326Z,99.90
2018-06-01T21:14:13.398Z,99.90
2018-06-01T21:17:16.497Z,99.90
2018-06-01T21:20:20.352Z,99.90
2018-06-01T21:23:23.956Z,99.90
2018-06-01T21:26:27.045Z,99.90
2018-06-01T21:29:30.147Z,99.90
2018-06-01T21:32:33.228Z,99.90
2018-06-01T21:35:36.412Z,99.90
2018-06-01T21:38:39.470Z,99.90
2018-06-01T21:41:42.588Z,99.90
2018-06-01T21:44:46.430Z,99.90
2018-06-01T21:47:49.526Z,99.90
2018-06-01T21:50:52.594Z,99.90
2018-06-01T21:53:55.713Z,99.90
2018-06-01T21:56:58.761Z,99.90
2018-06-01T22:00:01.871Z,99.90
2018-06-01T22:03:04.950Z,99.90
2018-06-01T22:06:08.059Z,99.90
2018-06-01T22:09:11.120Z,99.90
2018-06-01T22:12:14.210Z,99.90
2018-06-01T22:15:17.394Z,99.90
2018-06-01T22:18:20.466Z,99.90
2018-06-01T22:21:24.307Z,99.90
2018-06-01T22:24:27.411Z,99.90
2018-06-01T22:27:30.483Z,99.90
2018-06-01T22:30:33.587Z,99.90
2018-06-01T22:33:36.664Z,99.90
2018-06-01T22:36:39.763Z,99.90
2018-06-01T22:39:42.854Z,99.90
2018-06-01T22:42:45.955Z,99.90
2018-06-01T22:45:49.038Z,99.90
2018-06-01T22:48:52.126Z,99.90
2018-06-01T22:51:55.197Z,99.90
2018-06-01T22:54:58.298Z,99.90
2018-06-01T22:58:01.382Z,99.90
2018-06-01T23:01:04.555Z,99.90
2018-06-01T23:04:07.620Z,99.90
2018-06-01T23:07:11.445Z,99.90
2018-06-01T23:10:15.287Z,99.90
2018-06-01T23:13:18.410Z,99.90
2018-06-01T23:16:21.492Z,99.90
2018-06-01T23:19:24.587Z,99.90
2018-06-01T23:22:27.665Z,99.90
2018-06-01T23:25:30.831Z,99.90
2018-06-01T23:28:33.999Z,99.90
2018-06-01T23:31:37.080Z,99.90
2018-06-01T23:34:40.922Z,99.90
2018-06-01T23:37:44.009Z,99.90
2018-06-01T23:40:47.084Z,99.90
2018-06-01T23:43:50.195Z,99.90
2018-06-01T23:46:53.267Z,99.90
2018-06-01T23:49:56.377Z,99.90
2018-06-01T23:52:59.463Z,99.90
2018-06-01T23:56:02.665Z,99.90
2018-06-01T23:59:05.819Z,99.90
